createdAt,value
2022-09-18T00:01:59.618Z,9.39
2022-09-18T00:07:20.606Z,9.42
2022-09-18T00:12:41.320Z,9.43
2022-09-18T00:18:02.259Z,9.50
2022-09-18T00:23:23.037Z,9.36
2022-09-18T00:28:45.180Z,9.39
2022-09-18T00:34:08.959Z,9.42
2022-09-18T00:39:29.599Z,9.38
2022-09-18T00:44:50.207Z,9.35
2022-09-18T00:50:16.515Z,9.37
2022-09-18T00:55:38.241Z,9.38
2022-09-18T01:01:01.357Z,9.27
2022-09-18T01:06:46.077Z,9.10
2022-09-18T01:12:43.450Z,8.97
2022-09-18T01:18:13.469Z,8.96
2022-09-18T01:23:49.402Z,8.92
2022-09-18T01:29:25.564Z,8.88
2022-09-18T01:35:14.166Z,8.85
2022-09-18T01:40:54.121Z,8.73
2022-09-18T01:46:19.666Z,8.73
2022-09-18T01:52:12.148Z,8.73
2022-09-18T01:58:01.568Z,8.62
2022-09-18T02:03:25.176Z,8.56
2022-09-18T02:08:52.258Z,8.59
2022-09-18T02:14:26.178Z,8.58
2022-09-18T02:20:21.836Z,8.50
2022-09-18T02:25:54.718Z,8.49
2022-09-18T02:31:16.811Z,8.49
2022-09-18T02:37:09.200Z,8.44
2022-09-18T02:43:01.584Z,8.47
2022-09-18T02:48:52.137Z,8.39
2022-09-18T02:54:25.410Z,8.37
2022-09-18T02:59:54.311Z,8.41
2022-09-18T03:05:15.019Z,8.40
2022-09-18T03:10:44.851Z,8.39
2022-09-18T03:16:05.634Z,8.41
2022-09-18T03:21:27.424Z,8.29
2022-09-18T03:26:48.515Z,8.38
2022-09-18T03:32:09.449Z,8.42
2022-09-18T03:37:37.852Z,8.39
2022-09-18T03:43:01.659Z,8.37
2022-09-18T03:48:22.781Z,8.38
2022-09-18T03:53:46.497Z,8.42
2022-09-18T03:59:33.938Z,8.42
2022-09-18T04:05:15.457Z,8.44
2022-09-18T04:10:55.049Z,8.40
2022-09-18T04:16:19.053Z,8.38
2022-09-18T04:21:40.023Z,8.33
2022-09-18T04:27:00.711Z,8.33
2022-09-18T04:32:21.724Z,8.19
2022-09-18T04:37:44.801Z,8.25
2022-09-18T04:43:07.273Z,8.18
2022-09-18T04:48:27.863Z,8.12
2022-09-18T04:53:50.482Z,8.13
2022-09-18T04:59:11.896Z,8.13
2022-09-18T05:04:37.134Z,8.23
2022-09-18T05:10:10.714Z,8.34
2022-09-18T05:15:33.357Z,8.30
2022-09-18T05:21:02.150Z,8.21
2022-09-18T05:26:24.626Z,8.22
2022-09-18T05:31:45.068Z,8.27
2022-09-18T05:37:10.659Z,8.30
2022-09-18T05:42:33.852Z,8.39
2022-09-18T05:47:57.275Z,8.49
2022-09-18T05:53:20.885Z,8.58
2022-09-18T05:58:54.987Z,8.52
2022-09-18T06:04:16.038Z,8.58
2022-09-18T06:09:42.888Z,8.59
2022-09-18T06:15:03.837Z,8.72
2022-09-18T06:20:24.985Z,8.69
2022-09-18T06:25:45.960Z,8.76
2022-09-18T06:31:07.509Z,8.84
2022-09-18T06:36:57.432Z,8.98
2022-09-18T06:42:23.404Z,9.06
2022-09-18T06:48:10.539Z,9.22
2022-09-18T06:53:32.133Z,9.41
2022-09-18T06:58:56.850Z,9.61
2022-09-18T07:04:17.628Z,9.80
2022-09-18T07:09:39.243Z,10.10
2022-09-18T07:15:08.639Z,10.26
2022-09-18T07:20:30.060Z,10.31
2022-09-18T07:25:51.765Z,10.65
2022-09-18T07:31:13.120Z,10.93
2022-09-18T07:36:33.987Z,11.04
2022-09-18T07:41:54.666Z,11.16
2022-09-18T07:47:16.228Z,11.07
2022-09-18T07:52:37.328Z,11.08
2022-09-18T07:58:00.251Z,10.98
2022-09-18T08:03:43.282Z,10.88
2022-09-18T08:09:04.001Z,10.88
2022-09-18T08:14:49.365Z,11.05
2022-09-18T08:20:35.712Z,11.11
2022-09-18T08:26:13.233Z,11.03
2022-09-18T08:31:34.093Z,10.97
2022-09-18T08:36:57.576Z,10.73
2022-09-18T08:42:54.256Z,10.61
2022-09-18T08:48:29.019Z,10.47
2022-09-18T08:53:57.365Z,10.34
2022-09-18T08:59:51.164Z,10.27
2022-09-18T09:05:19.003Z,10.60
2022-09-18T09:11:02.463Z,11.00
2022-09-18T09:16:42.717Z,11.34
2022-09-18T09:22:08.031Z,11.50
2022-09-18T09:27:41.712Z,11.62
2022-09-18T09:33:37.625Z,11.85
2022-09-18T09:39:29.429Z,11.84
2022-09-18T09:45:24.567Z,11.64
2022-09-18T09:51:41.059Z,11.47
2022-09-18T09:57:19.934Z,11.53
2022-09-18T10:02:57.045Z,11.84
2022-09-18T10:08:35.813Z,12.17
2022-09-18T10:14:20.998Z,12.04
2022-09-18T10:19:43.942Z,11.88
2022-09-18T10:25:17.731Z,11.85
2022-09-18T10:30:53.836Z,11.84
2022-09-18T10:36:24.283Z,11.90
2022-09-18T10:41:48.461Z,12.00
2022-09-18T10:47:12.501Z,12.09
2022-09-18T10:52:38.893Z,11.98
2022-09-18T10:58:14.516Z,12.01
2022-09-18T11:03:47.593Z,12.10
2022-09-18T11:09:20.108Z,11.93
2022-09-18T11:14:44.952Z,11.81
2022-09-18T11:20:26.852Z,12.02
2022-09-18T11:26:18.190Z,12.19
2022-09-18T11:31:46.477Z,12.43
2022-09-18T11:37:22.048Z,12.59
2022-09-18T11:42:44.970Z,12.64
2022-09-18T11:48:36.314Z,13.05
2022-09-18T11:54:07.077Z,13.24
2022-09-18T11:59:34.596Z,13.26
2022-09-18T12:05:21.287Z,13.16
2022-09-18T12:10:49.937Z,13.05
2022-09-18T12:16:13.911Z,13.04
2022-09-18T12:21:47.276Z,12.91
2022-09-18T12:27:29.832Z,12.81
2022-09-18T12:33:22.958Z,12.66
2022-09-18T12:39:18.062Z,12.46
2022-09-18T12:45:24.991Z,12.39
2022-09-18T12:50:59.556Z,12.34
2022-09-18T12:56:38.371Z,12.28
2022-09-18T13:02:18.528Z,12.32
2022-09-18T13:07:48.629Z,12.33
2022-09-18T13:13:17.125Z,12.29
2022-09-18T13:18:46.893Z,12.39
2022-09-18T13:24:14.501Z,12.63
2022-09-18T13:29:53.704Z,12.89
2022-09-18T13:35:14.276Z,12.70
2022-09-18T13:40:39.297Z,12.77
2022-09-18T13:46:05.930Z,12.55
2022-09-18T13:51:31.585Z,12.58
2022-09-18T13:57:10.516Z,12.62
2022-09-18T14:02:42.538Z,12.46
2022-09-18T14:08:22.384Z,12.48
2022-09-18T14:13:51.458Z,12.46
2022-09-18T14:19:32.271Z,12.52
2022-09-18T14:24:53.314Z,12.54
2022-09-18T14:30:31.007Z,12.38
2022-09-18T14:35:57.488Z,12.31
2022-09-18T14:41:33.053Z,12.40
2022-09-18T14:46:59.118Z,12.37
2022-09-18T14:52:27.361Z,12.30
2022-09-18T14:57:59.151Z,12.19
2022-09-18T15:03:24.769Z,12.11
2022-09-18T15:08:48.596Z,12.08
2022-09-18T15:14:40.565Z,12.09
2022-09-18T15:20:16.235Z,12.02
2022-09-18T15:25:39.646Z,11.95
2022-09-18T15:31:04.729Z,11.91
2022-09-18T15:36:28.968Z,11.89
2022-09-18T15:41:50.205Z,11.85
2022-09-18T15:47:34.976Z,11.78
2022-09-18T15:52:57.864Z,11.79
2022-09-18T15:58:42.339Z,11.77
2022-09-18T16:04:08.733Z,11.72
2022-09-18T16:09:42.065Z,11.55
2022-09-18T16:15:23.995Z,11.47
2022-09-18T16:20:57.798Z,11.37
2022-09-18T16:26:27.920Z,11.32
2022-09-18T16:31:49.222Z,11.20
2022-09-18T16:37:12.302Z,11.09
2022-09-18T16:42:32.938Z,11.12
2022-09-18T16:47:57.785Z,11.05
2022-09-18T16:53:20.706Z,11.06
2022-09-18T16:58:42.238Z,11.25
2022-09-18T17:04:04.683Z,11.34
2022-09-18T17:09:25.816Z,11.30
2022-09-18T17:14:48.275Z,11.28
2022-09-18T17:20:12.991Z,11.37
2022-09-18T17:25:34.290Z,11.17
2022-09-18T17:30:55.105Z,11.19
2022-09-18T17:36:18.221Z,11.12
2022-09-18T17:41:39.156Z,10.94
2022-09-18T17:47:01.476Z,10.88
2022-09-18T17:52:22.261Z,10.95
2022-09-18T17:57:43.075Z,10.79
2022-09-18T18:03:04.300Z,10.76
2022-09-18T18:08:27.355Z,10.70
2022-09-18T18:13:49.893Z,10.62
2022-09-18T18:19:14.323Z,10.49
2022-09-18T18:24:34.976Z,10.36
2022-09-18T18:29:55.725Z,10.23
2022-09-18T18:35:16.497Z,10.22
2022-09-18T18:40:38.885Z,10.27
2022-09-18T18:46:02.042Z,10.19
2022-09-18T18:51:22.626Z,10.20
2022-09-18T18:56:43.427Z,10.15
2022-09-18T19:02:04.779Z,10.16
2022-09-18T19:07:25.512Z,10.27
2022-09-18T19:12:46.339Z,10.35
2022-09-18T19:18:07.322Z,10.29
2022-09-18T19:23:28.285Z,10.29
2022-09-18T19:28:58.112Z,10.10
2022-09-18T19:34:20.826Z,9.99
2022-09-18T19:39:41.530Z,9.94
2022-09-18T19:45:04.657Z,9.95
2022-09-18T19:50:29.384Z,9.94
2022-09-18T19:55:50.328Z,9.97
2022-09-18T20:01:12.813Z,10.18
2022-09-18T20:06:33.656Z,10.23
2022-09-18T20:11:54.142Z,10.11
2022-09-18T20:17:14.951Z,9.97
2022-09-18T20:22:39.871Z,9.92
2022-09-18T20:28:02.164Z,9.88
2022-09-18T20:33:22.906Z,9.77
2022-09-18T20:38:43.642Z,9.80
2022-09-18T20:44:04.954Z,9.94
2022-09-18T20:49:26.037Z,9.94
2022-09-18T20:54:46.711Z,9.96
2022-09-18T21:00:10.043Z,10.05
2022-09-18T21:05:30.907Z,10.10
2022-09-18T21:10:51.562Z,10.10
2022-09-18T21:16:12.265Z,10.01
2022-09-18T21:21:34.319Z,9.95
2022-09-18T21:26:54.973Z,9.79
2022-09-18T21:32:15.545Z,9.69
2022-09-18T21:37:36.194Z,9.73
2022-09-18T21:42:56.757Z,9.81
2022-09-18T21:48:17.969Z,9.84
2022-09-18T21:53:40.198Z,9.96
2022-09-18T21:59:00.735Z,10.01
2022-09-18T22:04:28.052Z,10.02
2022-09-18T22:09:50.797Z,9.98
2022-09-18T22:15:11.690Z,9.93
2022-09-18T22:20:35.592Z,9.95
2022-09-18T22:26:00.055Z,9.99
2022-09-18T22:31:24.688Z,9.99
2022-09-18T22:36:46.377Z,10.10
2022-09-18T22:42:06.890Z,10.04
2022-09-18T22:47:27.495Z,9.96
2022-09-18T22:52:48.756Z,9.77
2022-09-18T22:58:09.295Z,9.83
2022-09-18T23:03:29.903Z,9.77
2022-09-18T23:08:51.468Z,9.49
2022-09-18T23:14:18.620Z,9.39
2022-09-18T23:19:39.331Z,9.32
2022-09-18T23:25:00.134Z,9.20
2022-09-18T23:30:21.250Z,9.16
2022-09-18T23:35:41.946Z,9.19
2022-09-18T23:41:04.860Z,9.12
2022-09-18T23:46:25.915Z,9.00
2022-09-18T23:51:47.182Z,9.13
2022-09-18T23:57:07.897Z,9.12
